Hermantown, MN

6:53 PM CDT on September 19, 2014 (GMT -0500)
Hermantown - Loren | Change Station
CLOSE
Current Station
Personal Weather Station
Location: Duluth, MN
Elevation: 1410 ft
Nearby Weather Stations

Elev 1410 ft 46.86 °N, 92.22 °W | Updated 1 minute ago

Haze
Haze
62.6 °F
Feels Like 62.6 °F
N
6.0
Wind Variable Wind from WSW

Today
High -- | Low -- °F
--% Chance of Precip.
Yesterday
High -- | Low -- °F
Precip. -- in
6:51 AM 7:12 PM
Waning Crescent, 16% visible
Pressure 29.64 in
Visibility 4.0 miles
Clouds Mostly Cloudy 800 ft
Mostly Cloudy 2500 ft
Dew Point 62 °F
Humidity 96%
Rainfall 0.01 in
Snow Depth Not available.
UV 0 out of 12
Pollen .40 out of 12
Air Quality Not available.
Flu Activity Not available.
SPECI KDLH 192315Z 22015G20KT 4SM HZ BKN008 BKN025 18/15 A2964 RMK AO2 PK WND 20026/2301 CIG 006V010 T01780150

More Conditions Fewer Conditions

Pressure 29.64 in
Visibility 4.0 miles
Clouds Mostly Cloudy 800 ft
Mostly Cloudy 2500 ft
Dew Point 62 °F
Humidity 96%
Rainfall 0.01 in
Snow Depth Not available.
UV 0 out of 12
Pollen .40 out of 12
Air Quality Not available.
Flu Activity Not available.
SPECI KDLH 192315Z 22015G20KT 4SM HZ BKN008 BKN025 18/15 A2964 RMK AO2 PK WND 20026/2301 CIG 006V010 T01780150

More Conditions Fewer Conditions

10-Day Weather Forecast

Almanac

Astronomy

Sep. 19, 2014 Rise Set
Actual Time 6:51 AM CDT 7:12 PM CDT
Civil Twilight 6:21 AM CDT 7:42 PM CDT
Nautical Twilight 5:45 AM CDT 8:18 PM CDT
Astronomical Twilight 5:08 AM CDT 8:55 PM CDT
Moon 2:24 AM CDT 4:52 PM CDT
Length of Visible Light 13h 21m
Length of Day
12h 20m
Tomorrow will be 3m 18s shorter.
Waning Crescent, 16% of the Moon is Illuminated
Today
Waning Crescent
Sep 24
New
Oct 1
First Quarter
Oct 8
Full
Oct 15
Last Quarter

Today's Extremes

State Highs State Lows

Community

WunderPhotos

Upload Photos

1,754,730 photos uploaded!

Nearby

Snow Depth

Station Depth Elevation
No new snow has been reported.

Earthquake Activity

City Distance Mag. Time & Date
No recent earthquake activity has been reported nearby.
Minimum magnitude displayed is 2.5.

Coastal Water Temperatures

Place Temperature
Duluth, MN 60.1 °F

Nearby Weather Stations